Decoded Metar for KDVL (DEVILS LAKE in ND, USA) (IATA:DVL) | Meteo·Mobile Aviation Weather
aviador You're here:

KDVL Decoded Metar

DEVILS LAKE in ND, USA
Report Time2019-03-25 13:56:00
UTC Time2019-03-25 14:55:07
Flight Rules vfr VFR
Wind360° at 04 kt
W.Decomp.*RWY 03: 3.2 kt HW 2.4 kt LCW
RWY 31: 2.9 kt HW 2.7 kt RCW
Visibility9999 m
Phenomena:N/A
Clouds:N/A
Expected CloudBase > 400 ft AGL from Temp-Dew spread
CeilingNone
Temp-13°C (ISA -25)
Dew Point-14°C (92% RH)
AAT-17.8°C
QNH1030 hPa
Density Alt-2,244 ft
Elevation1,453 ft
Report Wrong Elevation
Raw Report
KDVL 251356Z AUTO 36004KT 10SM CLR M13/M14 A3042 RMK AO2 SLP351
T11281144 FZRANO=

Extra information for KDVL:More info

Metar Taf Metar & Taf Last 4 Metars F.Rules Stats Wind Profile Meteogram Temp Stats Airport Information Weather charts Add Link Nearby VenuesMetar ALERT Operation Metar Decoded Social comments

AIRNAV info for KDVL